Time;durP1;ratioP1;P1;durP2;ratioP2;P2;SDS_P1;SDS_P2;PMS_P1;PMS_P2;Temp;Humidity;BMP_temperature;BMP_pressure;BME280_temperature;BME280_humidity;BME280_pressure;Samples;Min_cycle;Max_cycle;Signal;HPM_P1;HPM_P2
2023/08/03 00:01:16;;;;;;;0.00;0.00;;;;;;;16.24;100.00;98887.38;5020649;28;20504;-54
2023/08/03 00:03:41;;;;;;;2.47;0.00;;;;;;;16.27;100.00;98896.72;5023413;28;20041;-45
2023/08/03 00:06:06;;;;;;;0.25;0.13;;;;;;;16.22;100.00;98902.88;5017533;28;20650;-50
2023/08/03 00:08:32;;;;;;;0.00;0.00;;;;;;;16.22;100.00;98910.91;5015830;28;20037;-47
2023/08/03 00:10:57;;;;;;;0.15;0.15;;;;;;;16.32;100.00;98918.94;5012955;28;20036;-50
2023/08/03 00:13:22;;;;;;;2.50;0.00;;;;;;;16.34;100.00;98924.00;5019169;28;20784;-54
2023/08/03 00:15:48;;;;;;;0.20;0.00;;;;;;;16.40;100.00;98932.84;5020785;28;20108;-51
2023/08/03 00:18:13;;;;;;;1.27;0.00;;;;;;;16.36;100.00;98929.88;5015677;28;20032;-54
2023/08/03 00:20:38;;;;;;;0.10;0.00;;;;;;;16.36;100.00;98935.22;5019958;28;20038;-55
2023/08/03 00:23:04;;;;;;;0.15;0.00;;;;;;;16.39;100.00;98931.22;5013530;28;20071;-48
2023/08/03 00:25:31;;;;;;;0.40;0.05;;;;;;;16.35;100.00;98937.13;5015658;28;20040;-54
2023/08/03 00:27:56;;;;;;;0.73;0.73;;;;;;;16.33;100.00;98944.59;5016079;28;20033;-54
2023/08/03 00:30:21;;;;;;;0.80;0.10;;;;;;;16.40;100.00;98946.22;5019556;28;20508;-50
2023/08/03 00:32:47;;;;;;;1.75;0.38;;;;;;;16.42;100.00;98946.72;5016810;28;20037;-53
2023/08/03 00:35:12;;;;;;;0.55;0.00;;;;;;;16.46;100.00;98955.84;5016837;28;20044;-50
2023/08/03 00:37:38;;;;;;;0.55;0.20;;;;;;;16.46;100.00;98963.88;5018533;28;20041;-53
2023/08/03 00:40:05;;;;;;;0.00;0.00;;;;;;;16.48;100.00;98964.41;5019028;28;20029;-56
2023/08/03 00:42:30;;;;;;;0.20;0.20;;;;;;;16.61;100.00;98966.56;5017391;28;20572;-52
2023/08/03 00:44:55;;;;;;;0.90;0.20;;;;;;;16.66;100.00;98976.47;5016486;28;20129;-46
2023/08/03 00:47:20;;;;;;;0.93;0.82;;;;;;;16.71;100.00;98971.13;5015261;28;20251;-50
2023/08/03 00:49:46;;;;;;;0.80;0.25;;;;;;;16.59;100.00;98976.72;5019892;28;20057;-51
2023/08/03 00:52:11;;;;;;;5.88;0.45;;;;;;;16.64;100.00;98981.28;5013879;28;20037;-52
2023/08/03 00:54:37;;;;;;;1.77;0.35;;;;;;;16.75;100.00;98983.69;5017538;28;20037;-54
2023/08/03 00:57:03;;;;;;;2.25;0.30;;;;;;;16.79;100.00;98990.13;5018576;28;20033;-55
2023/08/03 00:59:28;;;;;;;1.55;0.32;;;;;;;16.77;100.00;98994.13;5017978;28;20033;-46
2023/08/03 01:01:53;;;;;;;1.60;0.55;;;;;;;16.83;100.00;98995.78;5017259;28;20041;-53
2023/08/03 01:04:19;;;;;;;1.90;1.05;;;;;;;16.87;100.00;98998.69;5012753;28;20085;-54
2023/08/03 01:06:44;;;;;;;2.35;0.40;;;;;;;16.63;100.00;99007.22;5023464;28;20083;-54
2023/08/03 01:09:09;;;;;;;2.20;0.38;;;;;;;16.63;100.00;99006.44;5020009;28;20087;-54
2023/08/03 01:11:35;;;;;;;3.85;0.88;;;;;;;16.57;100.00;99016.31;5021035;28;20483;-49
2023/08/03 01:14:00;;;;;;;2.03;0.88;;;;;;;16.56;100.00;99018.19;5015132;28;20096;-51
2023/08/03 01:16:27;;;;;;;4.15;0.30;;;;;;;16.68;100.00;99025.19;5019099;28;20026;-50
2023/08/03 01:18:52;;;;;;;0.98;0.70;;;;;;;16.82;100.00;99014.75;5023502;28;20035;-50
2023/08/03 01:21:20;;;;;;;2.70;0.50;;;;;;;16.79;100.00;99016.91;5017267;28;20049;-48
2023/08/03 01:23:45;;;;;;;1.17;0.65;;;;;;;16.85;100.00;99019.56;5021567;28;20025;-50
2023/08/03 01:26:11;;;;;;;3.78;1.42;;;;;;;16.81;100.00;99015.84;5011723;28;20037;-52
2023/08/03 01:28:36;;;;;;;1.33;0.50;;;;;;;16.79;100.00;99037.50;5021433;28;20033;-48
2023/08/03 01:31:02;;;;;;;1.75;0.55;;;;;;;16.82;100.00;99041.53;5014293;28;20029;-52
2023/08/03 01:33:28;;;;;;;0.88;0.50;;;;;;;16.86;100.00;99040.72;5024410;28;20043;-49
2023/08/03 01:35:53;;;;;;;5.78;2.05;;;;;;;16.92;100.00;99049.56;5016093;28;20033;-47
2023/08/03 01:38:18;;;;;;;1.02;0.65;;;;;;;16.90;100.00;99054.38;5015405;28;20386;-48
2023/08/03 01:40:44;;;;;;;3.40;1.38;;;;;;;16.84;100.00;99058.13;5017871;28;20411;-47
2023/08/03 01:43:09;;;;;;;4.20;0.95;;;;;;;16.81;100.00;99058.66;5019203;28;20025;-52
2023/08/03 01:45:35;;;;;;;4.20;0.77;;;;;;;16.62;100.00;99064.47;5014794;28;20390;-56
2023/08/03 01:48:00;;;;;;;0.82;0.38;;;;;;;16.58;100.00;99069.56;5019422;28;20097;-52
2023/08/03 01:50:26;;;;;;;0.82;0.35;;;;;;;16.64;100.00;99077.59;5022789;28;20030;-53
2023/08/03 01:52:51;;;;;;;1.10;0.63;;;;;;;16.74;100.00;99072.28;5021746;28;20453;-51
2023/08/03 01:55:16;;;;;;;1.25;0.40;;;;;;;16.59;100.00;99091.78;5013628;28;20307;-46
2023/08/03 01:57:41;;;;;;;4.78;1.45;;;;;;;16.51;100.00;99094.97;5010654;28;20061;-53
2023/08/03 02:00:07;;;;;;;2.20;0.57;;;;;;;16.55;100.00;99102.22;5024240;28;20120;-48
2023/08/03 02:02:32;;;;;;;0.73;0.20;;;;;;;16.56;100.00;99106.47;5023620;28;20045;-52
2023/08/03 02:04:58;;;;;;;3.08;0.70;;;;;;;16.62;100.00;99114.53;5019788;28;20469;-53
2023/08/03 02:07:53;;;;;;;2.67;0.77;;;;;;;16.66;100.00;99113.72;5020280;28;20509;-49
2023/08/03 02:10:19;;;;;;;1.10;0.22;;;;;;;16.64;100.00;99117.75;5018432;28;20131;-53
2023/08/03 02:12:44;;;;;;;2.60;0.52;;;;;;;16.66;100.00;99126.31;5011064;28;20046;-54
2023/08/03 02:15:10;;;;;;;1.98;0.30;;;;;;;16.71;100.00;99127.13;5017362;28;20775;-52
2023/08/03 02:17:35;;;;;;;3.50;0.50;;;;;;;16.67;100.00;99126.03;5015082;28;20026;-50
2023/08/03 02:20:00;;;;;;;2.10;0.55;;;;;;;16.69;100.00;99133.81;5008810;28;20426;-50
2023/08/03 02:22:26;;;;;;;1.98;0.63;;;;;;;16.69;100.00;99131.13;5020162;28;20032;-47
2023/08/03 02:24:51;;;;;;;0.98;0.28;;;;;;;16.63;100.00;99133.00;5015924;28;20052;-48
2023/08/03 02:27:17;;;;;;;2.53;0.30;;;;;;;16.66;100.00;99135.16;5014675;28;20105;-48
2023/08/03 02:29:42;;;;;;;1.45;0.30;;;;;;;16.66;100.00;99135.16;5020867;28;20486;-50
2023/08/03 02:32:08;;;;;;;1.88;0.10;;;;;;;16.70;100.00;99146.94;5021353;28;20029;-49
2023/08/03 02:34:33;;;;;;;1.70;0.38;;;;;;;16.79;100.00;99152.59;5009139;28;20041;-49
2023/08/03 02:36:58;;;;;;;1.05;0.40;;;;;;;16.72;100.00;99149.34;5015518;28;20080;-50
2023/08/03 02:39:24;;;;;;;2.60;0.63;;;;;;;16.75;100.00;99159.50;5023251;28;20067;-49
2023/08/03 02:41:49;;;;;;;0.88;0.15;;;;;;;16.84;100.00;99157.19;5017402;28;20040;-54
2023/08/03 02:44:14;;;;;;;0.43;0.30;;;;;;;16.92;100.00;99162.00;5007334;28;20037;-51
2023/08/03 02:46:40;;;;;;;4.07;0.20;;;;;;;16.95;100.00;99164.16;5014806;28;20519;-47
2023/08/03 02:49:06;;;;;;;2.70;0.28;;;;;;;16.92;100.00;99175.38;5004422;28;20076;-47
2023/08/03 02:51:31;;;;;;;1.90;0.17;;;;;;;16.84;100.00;99173.22;5018147;28;20424;-50
2023/08/03 02:53:56;;;;;;;2.38;0.20;;;;;;;16.82;100.00;99172.69;5021564;28;20037;-50
2023/08/03 02:56:22;;;;;;;1.60;0.38;;;;;;;16.87;100.00;99172.69;5013005;28;20036;-47
2023/08/03 02:58:47;;;;;;;1.40;0.30;;;;;;;16.85;100.00;99186.34;5016971;28;20025;-46
2023/08/03 03:01:12;;;;;;;4.43;1.15;;;;;;;16.87;100.00;99188.75;5010928;28;20053;-47
2023/08/03 03:03:38;;;;;;;0.10;0.10;;;;;;;16.78;100.00;99188.47;5020835;28;20029;-51
2023/08/03 03:06:03;;;;;;;2.00;1.00;;;;;;;16.63;100.00;99193.75;5016136;28;20057;-52
2023/08/03 03:08:28;;;;;;;0.75;0.22;;;;;;;16.70;100.00;99205.81;5018173;28;20037;-52
2023/08/03 03:10:53;;;;;;;2.00;0.10;;;;;;;16.75;100.00;99213.88;5020174;28;20463;-54
2023/08/03 03:13:19;;;;;;;3.22;0.20;;;;;;;16.73;100.00;99217.88;5017192;28;20119;-52
2023/08/03 03:15:44;;;;;;;0.20;0.15;;;;;;;16.74;100.00;99220.28;5017047;28;20022;-53
2023/08/03 03:18:09;;;;;;;5.30;0.40;;;;;;;16.71;100.00;99228.81;5019399;28;20029;-52
2023/08/03 03:20:35;;;;;;;2.47;0.20;;;;;;;16.72;100.00;99229.63;5015155;28;20291;-46
2023/08/03 03:23:00;;;;;;;1.27;0.45;;;;;;;16.63;100.00;99237.38;5012250;28;20029;-51
2023/08/03 03:25:25;;;;;;;6.72;0.55;;;;;;;16.75;100.00;99239.81;5015602;28;20036;-47
2023/08/03 03:27:50;;;;;;;3.20;0.03;;;;;;;16.77;100.00;99240.34;5010720;28;20108;-50
2023/08/03 03:30:16;;;;;;;1.75;0.20;;;;;;;16.78;100.00;99242.00;5018766;28;20033;-51
2023/08/03 03:32:43;;;;;;;1.20;0.10;;;;;;;16.71;100.00;99254.78;5019102;28;20037;-51
2023/08/03 03:35:08;;;;;;;2.65;0.30;;;;;;;16.67;100.00;99259.84;5014958;28;20037;-48
2023/08/03 03:37:34;;;;;;;2.45;0.40;;;;;;;16.54;100.00;99260.31;5017895;28;20033;-50
2023/08/03 03:39:59;;;;;;;5.00;0.98;;;;;;;16.55;100.00;99272.66;5016467;28;20112;-48
2023/08/03 03:42:24;;;;;;;1.08;0.52;;;;;;;16.49;100.00;99287.03;5012212;28;20025;-50
2023/08/03 03:44:50;;;;;;;2.47;0.32;;;;;;;16.45;100.00;99291.31;5017456;28;20033;-49
2023/08/03 03:47:15;;;;;;;2.15;0.17;;;;;;;16.40;100.00;99291.28;5011740;28;20108;-51
2023/08/03 03:49:40;;;;;;;1.15;0.10;;;;;;;16.44;100.00;99292.38;5017312;28;20027;-51
2023/08/03 03:52:06;;;;;;;2.08;1.10;;;;;;;16.44;100.00;99295.03;5019230;28;20022;-50
2023/08/03 03:54:31;;;;;;;1.27;0.73;;;;;;;16.46;100.00;99301.75;5017309;28;20510;-49
2023/08/03 03:56:58;;;;;;;8.00;0.60;;;;;;;16.42;100.00;99299.84;5017967;28;20061;-51
2023/08/03 03:59:23;;;;;;;1.98;0.20;;;;;;;16.37;100.00;99303.31;5017191;28;20048;-47
2023/08/03 04:01:48;;;;;;;3.60;0.20;;;;;;;16.36;100.00;99310.50;5022748;28;20156;-49
2023/08/03 04:04:14;;;;;;;4.93;0.52;;;;;;;16.41;100.00;99311.63;5017776;28;20108;-49
2023/08/03 04:06:39;;;;;;;1.45;0.13;;;;;;;16.39;100.00;99314.53;5015353;28;20045;-54
2023/08/03 04:09:04;;;;;;;4.20;0.90;;;;;;;16.41;100.00;99315.09;5011971;28;20053;-53
2023/08/03 04:11:29;;;;;;;1.20;0.28;;;;;;;16.37;100.00;99324.72;5013811;28;20034;-48
2023/08/03 04:13:55;;;;;;;0.95;0.38;;;;;;;16.28;100.00;99329.72;5019235;28;20124;-49
2023/08/03 04:16:20;;;;;;;1.80;0.13;;;;;;;16.23;100.00;99340.38;5020211;28;20033;-51
2023/08/03 04:18:45;;;;;;;2.67;1.05;;;;;;;16.36;100.00;99333.78;5015383;28;20161;-48
2023/08/03 04:21:11;;;;;;;2.05;0.30;;;;;;;16.39;100.00;99345.84;5018935;28;20065;-46
2023/08/03 04:23:36;;;;;;;1.52;0.40;;;;;;;16.47;100.00;99345.34;5021018;28;21120;-50
2023/08/03 04:26:02;;;;;;;4.03;0.82;;;;;;;16.48;100.00;99347.78;5021492;28;20033;-51
2023/08/03 04:28:27;;;;;;;2.47;0.52;;;;;;;16.32;100.00;99354.09;5018365;28;20080;-47
2023/08/03 04:30:52;;;;;;;4.47;0.05;;;;;;;16.26;100.00;99361.28;5020877;28;20540;-47
2023/08/03 04:33:18;;;;;;;3.03;0.30;;;;;;;16.21;100.00;99358.56;5018008;28;20088;-51
2023/08/03 04:35:43;;;;;;;0.95;0.22;;;;;;;16.16;100.00;99360.38;5016149;28;20103;-49
2023/08/03 04:38:08;;;;;;;3.88;0.20;;;;;;;16.10;100.00;99363.00;5014969;28;20085;-49
2023/08/03 04:40:35;;;;;;;1.20;0.20;;;;;;;15.98;100.00;99385.59;5022905;28;20126;-47
2023/08/03 04:43:01;;;;;;;2.83;0.35;;;;;;;15.98;100.00;99388.28;5020242;28;20047;-51
2023/08/03 04:45:26;;;;;;;1.73;0.55;;;;;;;16.00;100.00;99384.28;5015295;28;20360;-50
2023/08/03 04:47:52;;;;;;;0.17;0.10;;;;;;;16.03;100.00;99391.00;5019123;28;20034;-50
2023/08/03 04:50:19;;;;;;;5.22;0.52;;;;;;;16.05;100.00;99394.22;5026157;28;20078;-49
2023/08/03 04:52:44;;;;;;;3.40;0.47;;;;;;;15.98;100.00;99394.44;5014746;28;20079;-49
2023/08/03 04:55:09;;;;;;;1.48;0.30;;;;;;;15.92;100.00;99404.25;5019645;28;20026;-48
2023/08/03 04:57:35;;;;;;;1.65;0.55;;;;;;;15.86;100.00;99404.47;5015659;28;20416;-47
2023/08/03 05:00:00;;;;;;;6.53;0.35;;;;;;;15.81;100.00;99404.44;5016540;28;20502;-51
2023/08/03 05:02:25;;;;;;;1.52;0.10;;;;;;;15.78;100.00;99407.59;5022761;28;20453;-48
2023/08/03 05:04:52;;;;;;;1.63;0.38;;;;;;;15.72;100.00;99422.78;5018029;28;20049;-47
2023/08/03 05:07:17;;;;;;;3.42;0.88;;;;;;;15.73;100.00;99424.38;5022674;28;20087;-50
2023/08/03 05:09:42;;;;;;;2.20;0.28;;;;;;;15.69;100.00;99426.75;5017409;28;20025;-49
2023/08/03 05:12:08;;;;;;;2.50;0.32;;;;;;;15.67;100.00;99428.03;5014539;28;20041;-52
2023/08/03 05:14:33;;;;;;;2.72;0.10;;;;;;;15.67;100.00;99436.06;5014702;28;20033;-51
2023/08/03 05:16:59;;;;;;;4.55;1.05;;;;;;;15.67;100.00;99438.72;5018661;28;20026;-50
2023/08/03 05:19:24;;;;;;;2.45;0.73;;;;;;;15.72;100.00;99443.34;5017134;28;20052;-50
2023/08/03 05:21:49;;;;;;;2.30;0.10;;;;;;;15.78;100.00;99445.81;5017303;28;20387;-53
2023/08/03 05:24:14;;;;;;;1.77;0.30;;;;;;;15.82;100.00;99449.59;5018798;28;20112;-48
2023/08/03 05:26:40;;;;;;;1.75;0.28;;;;;;;15.92;100.00;99452.38;5020583;28;20083;-49
2023/08/03 05:29:05;;;;;;;1.70;0.10;;;;;;;15.98;100.00;99449.75;5019674;28;20083;-52
2023/08/03 05:31:30;;;;;;;2.60;0.55;;;;;;;15.98;100.00;99455.09;5021909;28;20025;-51
2023/08/03 05:33:56;;;;;;;3.92;1.23;;;;;;;16.03;100.00;99450.66;5017602;28;20462;-51
2023/08/03 05:36:23;;;;;;;1.95;0.47;;;;;;;16.00;100.00;99459.16;5012575;28;20124;-49
2023/08/03 05:38:52;;;;;;;1.08;0.20;;;;;;;15.99;100.00;99456.75;5017491;28;20037;-50
2023/08/03 05:41:21;;;;;;;1.60;0.10;;;;;;;15.94;100.00;99456.69;5012672;28;20308;-51
2023/08/03 05:43:46;;;;;;;2.72;0.00;;;;;;;15.90;100.00;99459.03;5020873;28;20044;-47
2023/08/03 05:46:14;;;;;;;1.25;0.10;;;;;;;15.90;100.00;99461.72;5011133;28;20033;-46
2023/08/03 05:48:39;;;;;;;5.80;0.30;;;;;;;15.94;100.00;99467.38;5014608;28;20044;-54
2023/08/03 05:51:05;;;;;;;2.83;0.52;;;;;;;15.86;100.00;99477.44;5020300;28;20748;-48
2023/08/03 05:53:31;;;;;;;2.22;0.43;;;;;;;15.88;100.00;99482.56;5019661;28;20041;-48
2023/08/03 05:55:57;;;;;;;1.17;0.10;;;;;;;15.93;100.00;99495.97;5019578;28;20441;-47
2023/08/03 05:58:22;;;;;;;0.93;0.20;;;;;;;16.02;100.00;99491.78;5028550;28;20132;-48
2023/08/03 06:00:49;;;;;;;4.43;0.73;;;;;;;16.06;100.00;99500.13;5012793;28;20022;-46
2023/08/03 06:03:17;;;;;;;1.42;0.30;;;;;;;16.19;100.00;99506.97;5016084;28;20072;-53
2023/08/03 06:05:47;;;;;;;1.98;0.28;;;;;;;16.35;100.00;99508.72;5005944;28;20030;-48
2023/08/03 06:08:17;;;;;;;0.57;0.43;;;;;;;16.54;100.00;99501.94;5015041;28;20688;-54
2023/08/03 06:10:51;;;;;;;2.72;0.20;;;;;;;16.60;100.00;99505.50;5011573;28;20069;-50
2023/08/03 06:13:18;;;;;;;1.13;0.30;;;;;;;16.67;100.00;99516.75;5010930;28;20112;-46
2023/08/03 06:15:45;;;;;;;8.68;0.38;;;;;;;16.72;100.00;99500.75;5014944;28;20026;-51
2023/08/03 06:18:14;;;;;;;5.00;1.08;;;;;;;16.65;100.00;99513.56;5020052;28;20092;-46
2023/08/03 06:20:44;;;;;;;4.97;0.50;;;;;;;16.63;100.00;99510.31;5024237;28;21373;-46
2023/08/03 06:23:17;;;;;;;1.40;0.08;;;;;;;16.68;100.00;99518.41;5016603;28;20390;-46
2023/08/03 06:25:43;;;;;;;1.85;0.43;;;;;;;16.70;100.00;99520.81;5014336;28;20075;-45
2023/08/03 06:28:10;;;;;;;3.58;0.28;;;;;;;16.57;100.00;99520.19;5017671;28;20290;-51
2023/08/03 06:30:36;;;;;;;0.98;0.45;;;;;;;16.46;100.00;99517.66;5006496;28;20033;-51
2023/08/03 06:33:02;;;;;;;2.63;0.20;;;;;;;16.55;100.00;99529.53;5016190;28;20033;-49
2023/08/03 06:35:42;;;;;;;3.45;0.35;;;;;;;16.62;100.00;99535.44;5011594;28;20029;-49
2023/08/03 06:38:10;;;;;;;1.23;0.08;;;;;;;16.69;100.00;99536.06;5018042;28;20076;-52
2023/08/03 06:40:36;;;;;;;4.10;0.30;;;;;;;16.74;100.00;99541.47;5020752;28;20040;-50
2023/08/03 06:43:02;;;;;;;2.40;0.20;;;;;;;16.72;100.00;99543.56;5019743;28;20025;-51
2023/08/03 06:45:32;;;;;;;2.47;0.38;;;;;;;16.61;100.00;99539.19;5011752;28;20403;-50
2023/08/03 06:47:59;;;;;;;1.33;0.10;;;;;;;16.62;100.00;99542.69;5016931;28;20167;-52
2023/08/03 06:50:25;;;;;;;2.55;0.20;;;;;;;16.63;100.00;99544.31;5013469;28;20037;-49
2023/08/03 06:52:51;;;;;;;4.05;0.52;;;;;;;16.72;100.00;99559.63;5018705;28;20037;-45
2023/08/03 06:55:16;;;;;;;3.20;0.20;;;;;;;16.84;100.00;99561.41;5015735;28;20503;-51
2023/08/03 06:57:42;;;;;;;1.75;0.20;;;;;;;16.93;100.00;99557.97;5019480;28;20911;-46
2023/08/03 07:00:08;;;;;;;2.10;0.00;;;;;;;17.13;100.00;99565.38;5018898;28;20037;-51
2023/08/03 07:02:34;;;;;;;4.43;0.20;;;;;;;17.16;100.00;99562.16;5018669;28;20045;-49
2023/08/03 07:04:59;;;;;;;0.80;0.00;;;;;;;17.33;100.00;99572.75;5015426;28;20033;-52
2023/08/03 07:07:25;;;;;;;2.85;0.63;;;;;;;17.44;100.00;99568.25;5018591;28;20167;-51
2023/08/03 07:09:50;;;;;;;2.67;0.20;;;;;;;17.57;100.00;99581.22;5020359;28;20092;-46
2023/08/03 07:12:16;;;;;;;0.90;0.20;;;;;;;17.53;100.00;99577.44;5016133;28;20519;-50
2023/08/03 07:14:42;;;;;;;3.65;0.35;;;;;;;17.56;100.00;99590.31;5013232;28;20108;-49
2023/08/03 07:17:07;;;;;;;1.60;0.20;;;;;;;17.59;100.00;99589.81;4992180;28;20032;-46
2023/08/03 07:19:33;;;;;;;1.08;0.30;;;;;;;17.58;100.00;99604.28;5013591;28;20634;-49
2023/08/03 07:21:58;;;;;;;2.45;0.10;;;;;;;17.46;100.00;99602.84;5008953;28;20224;-49
2023/08/03 07:24:24;;;;;;;7.97;0.80;;;;;;;17.35;100.00;99599.31;5007238;28;20099;-46
2023/08/03 07:26:49;;;;;;;8.32;0.38;;;;;;;17.59;100.00;99597.84;5011633;28;20057;-52
2023/08/03 07:29:15;;;;;;;1.05;0.10;;;;;;;17.57;100.00;99618.72;5011064;28;20029;-48
2023/08/03 07:31:41;;;;;;;0.93;0.85;;;;;;;17.43;100.00;99614.91;5015699;28;20037;-48
2023/08/03 07:34:06;;;;;;;1.48;0.65;;;;;;;17.40;100.00;99610.06;5009682;28;20839;-50
2023/08/03 07:36:31;;;;;;;4.43;0.40;;;;;;;17.43;100.00;99617.56;5004370;28;20089;-47
2023/08/03 07:38:57;;;;;;;2.20;0.13;;;;;;;17.52;100.00;99613.34;5007243;28;20113;-48
2023/08/03 07:41:22;;;;;;;0.75;0.00;;;;;;;17.75;100.00;99622.06;5017494;28;20033;-50
2023/08/03 07:43:49;;;;;;;2.53;0.10;;;;;;;17.98;100.00;99621.69;5009761;28;20030;-46
2023/08/03 07:46:15;;;;;;;0.30;0.00;;;;;;;18.21;100.00;99623.13;5014158;28;20029;-52
2023/08/03 07:48:40;;;;;;;3.92;0.82;;;;;;;18.45;100.00;99618.09;5018615;28;20088;-47
2023/08/03 07:51:13;;;;;;;0.45;0.38;;;;;;;18.76;100.00;99628.97;5027673;28;20076;-50
2023/08/03 07:53:39;;;;;;;2.90;0.93;;;;;;;19.01;100.00;99630.09;5019517;28;20049;-45
2023/08/03 07:56:13;;;;;;;1.85;0.00;;;;;;;18.87;100.00;99621.72;5011708;28;20030;-46
2023/08/03 07:58:38;;;;;;;2.63;0.95;;;;;;;18.74;100.00;99618.47;5011711;28;20032;-45
2023/08/03 08:01:05;;;;;;;0.32;0.10;;;;;;;18.57;100.00;99623.25;5015113;28;20025;-46
2023/08/03 08:03:30;;;;;;;0.65;0.10;;;;;;;18.37;100.00;99629.38;5024654;28;20037;-45
2023/08/03 08:06:07;;;;;;;1.38;0.57;;;;;;;18.37;100.00;99634.72;5009407;28;20029;-46
2023/08/03 08:08:33;;;;;;;1.65;0.20;;;;;;;18.38;100.00;99636.34;5001289;28;20128;-47
2023/08/03 08:10:58;;;;;;;0.98;0.00;;;;;;;18.46;100.00;99646.59;5007693;28;20059;-47
2023/08/03 08:13:23;;;;;;;1.38;0.05;;;;;;;18.55;100.00;99636.13;5011544;28;20544;-48
2023/08/03 08:15:49;;;;;;;0.25;0.03;;;;;;;18.48;100.00;99647.13;5007319;28;20044;-50
2023/08/03 08:18:14;;;;;;;1.15;0.13;;;;;;;18.55;100.00;99660.28;5007607;28;20052;-47
2023/08/03 08:20:40;;;;;;;1.08;0.38;;;;;;;18.60;100.00;99654.94;5006383;28;20117;-51
2023/08/03 08:23:05;;;;;;;1.73;0.47;;;;;;;18.59;100.00;99661.38;5003816;28;20116;-46
2023/08/03 08:25:35;;;;;;;0.90;0.20;;;;;;;18.57;100.00;99655.47;5003031;28;20036;-45
2023/08/03 08:28:01;;;;;;;0.82;0.20;;;;;;;18.68;100.00;99662.47;5003684;28;20147;-49
2023/08/03 08:30:26;;;;;;;0.88;0.05;;;;;;;18.86;100.00;99663.91;5016746;28;20107;-45
2023/08/03 08:32:54;;;;;;;0.25;0.10;;;;;;;18.69;100.00;99656.06;5005757;28;20479;-48
2023/08/03 08:35:20;;;;;;;1.75;0.10;;;;;;;18.67;100.00;99654.69;5004719;28;20056;-49
2023/08/03 08:37:45;;;;;;;0.93;0.10;;;;;;;18.79;100.00;99663.34;5003762;28;20030;-45
2023/08/03 08:40:11;;;;;;;1.92;0.63;;;;;;;19.12;100.00;99659.38;5002096;28;20034;-49
2023/08/03 08:42:37;;;;;;;2.30;0.20;;;;;;;19.68;100.00;99672.03;5014094;28;20026;-49
2023/08/03 08:45:05;;;;;;;3.10;0.20;;;;;;;20.11;100.00;99659.03;5003111;28;20267;-48
2023/08/03 08:47:30;;;;;;;2.08;0.00;;;;;;;19.84;100.00;99662.06;5003566;28;20104;-48
2023/08/03 08:49:55;;;;;;;2.17;0.85;;;;;;;19.49;100.00;99676.31;5002912;28;20108;-43
2023/08/03 08:52:23;;;;;;;1.60;0.20;;;;;;;19.56;100.00;99679.53;5003897;28;20030;-46
2023/08/03 08:54:48;;;;;;;0.17;0.00;;;;;;;19.47;100.00;99678.47;5004978;28;20025;-46
2023/08/03 08:57:14;;;;;;;1.20;0.10;;;;;;;19.46;100.00;99674.16;5005634;28;20378;-50
2023/08/03 08:59:57;;;;;;;1.90;0.28;;;;;;;19.54;100.00;99676.31;5007110;28;20248;-46
2023/08/03 09:02:26;;;;;;;1.00;0.22;;;;;;;19.45;100.00;99680.63;5002777;28;20434;-49
2023/08/03 09:04:51;;;;;;;4.72;0.10;;;;;;;19.69;100.00;99683.59;5006189;28;20056;-47
2023/08/03 09:07:17;;;;;;;4.70;1.05;;;;;;;19.85;100.00;99679.78;5002989;28;20042;-46
2023/08/03 09:09:43;;;;;;;1.33;0.10;;;;;;;19.96;100.00;99680.59;5001117;28;20114;-50
2023/08/03 09:12:08;;;;;;;1.50;0.10;;;;;;;19.83;100.00;99687.34;5003515;28;20899;-50
2023/08/03 09:14:49;;;;;;;0.68;0.10;;;;;;;19.91;100.00;99694.88;4998205;28;20059;-49
2023/08/03 09:17:16;;;;;;;0.50;0.10;;;;;;;19.57;100.00;99700.00;5003098;28;20034;-48
2023/08/03 09:19:42;;;;;;;0.65;0.10;;;;;;;19.59;100.00;99693.25;5009474;28;20809;-45
2023/08/03 09:22:07;;;;;;;0.60;0.32;;;;;;;19.91;100.00;99696.75;5006442;28;20040;-50
2023/08/03 09:24:32;;;;;;;0.55;0.00;;;;;;;19.82;100.00;99707.25;5002963;28;20288;-50
2023/08/03 09:26:58;;;;;;;0.85;0.30;;;;;;;19.98;100.00;99705.34;5004736;28;20079;-47
2023/08/03 09:29:27;;;;;;;0.00;0.00;;;;;;;20.20;100.00;99708.53;5002617;28;20037;-47
2023/08/03 09:32:04;;;;;;;1.38;0.20;;;;;;;20.33;100.00;99709.03;5002534;28;20394;-47
2023/08/03 09:34:36;;;;;;;0.82;0.20;;;;;;;20.37;100.00;99710.91;5003707;28;20120;-49
2023/08/03 09:37:03;;;;;;;0.55;0.10;;;;;;;20.72;100.00;99705.66;5010263;28;20554;-46
2023/08/03 09:39:32;;;;;;;2.03;0.10;;;;;;;20.86;100.00;99701.31;4994597;28;20140;-45
2023/08/03 09:41:59;;;;;;;0.38;0.30;;;;;;;20.88;100.00;99702.63;5001143;28;20087;-48
2023/08/03 09:44:26;;;;;;;0.63;0.10;;;;;;;21.31;100.00;99716.34;5002030;28;20141;-48
2023/08/03 09:46:51;;;;;;;0.47;0.15;;;;;;;21.40;100.00;99702.31;5001810;28;20044;-48
2023/08/03 09:49:16;;;;;;;0.30;0.30;;;;;;;;;;5006437;28;20041;-50
2023/08/03 09:51:44;;;;;;;0.55;0.45;;;;;;;21.39;100.00;99711.50;5004053;28;20196;-46
2023/08/03 09:54:22;;;;;;;0.25;0.10;;;;;;;21.73;100.00;99706.88;5010538;28;20056;-48
2023/08/03 09:56:52;;;;;;;0.22;0.13;;;;;;;21.34;100.00;99713.09;5001937;28;20068;-45
2023/08/03 09:59:24;;;;;;;2.92;0.73;;;;;;;21.13;100.00;99722.41;5010512;28;20080;-46
2023/08/03 10:01:52;;;;;;;;;;;;;;;21.59;100.00;99707.84;5004719;28;20053;-54
2023/08/03 10:04:19;;;;;;;4.32;0.20;;;;;;;21.71;100.00;99719.88;5007434;28;19924;-45
2023/08/03 10:06:48;;;;;;;0.10;0.10;;;;;;;21.51;100.00;99720.03;5006781;28;20033;-47
2023/08/03 10:09:20;;;;;;;0.82;0.00;;;;;;;21.44;100.00;99720.34;5002150;28;20128;-45
2023/08/03 10:11:49;;;;;;;0.70;0.08;;;;;;;21.24;100.00;99736.63;5002532;28;20088;-50
2023/08/03 10:14:32;;;;;;;0.00;0.00;;;;;;;20.82;100.00;99735.25;4995427;28;20037;-52
2023/08/03 10:17:00;;;;;;;0.40;0.00;;;;;;;21.03;100.00;99742.13;5004512;28;20510;-49
2023/08/03 10:19:27;;;;;;;0.10;0.00;;;;;;;21.16;100.00;99742.63;5003327;28;20034;-50
2023/08/03 10:21:54;;;;;;;1.38;0.00;;;;;;;21.09;100.00;99745.59;5006284;28;20033;-46
2023/08/03 10:24:19;;;;;;;0.30;0.00;;;;;;;21.03;100.00;99744.84;5007121;28;20231;-50
2023/08/03 10:26:54;;;;;;;1.25;0.63;;;;;;;21.16;100.00;99750.69;5009180;28;20383;-45
2023/08/03 10:29:51;;;;;;;0.40;0.00;;;;;;;21.53;100.00;99742.13;5006226;28;20046;-53
2023/08/03 10:32:22;;;;;;;0.20;0.10;;;;;;;22.03;100.00;99753.56;5010608;28;20170;-49
2023/08/03 10:34:48;;;;;;;0.73;0.10;;;;;;;22.43;100.00;99760.47;5006668;28;20090;-45
2023/08/03 10:37:14;;;;;;;0.00;0.00;;;;;;;22.47;100.00;99752.59;5007725;28;20037;-50
2023/08/03 10:39:51;;;;;;;0.10;0.10;;;;;;;22.61;100.00;99763.50;5000025;28;20030;-51
2023/08/03 10:42:20;;;;;;;0.50;0.00;;;;;;;22.45;100.00;99759.38;5006936;28;20029;-53
2023/08/03 10:44:45;;;;;;;0.68;0.10;;;;;;;22.43;100.00;99774.00;4999006;28;20035;-45
2023/08/03 10:47:28;;;;;;;0.20;0.10;;;;;;;22.67;100.00;99767.78;5001508;28;20022;-49
2023/08/03 10:49:55;;;;;;;0.20;0.00;;;;;;;23.16;100.00;99768.53;4999874;28;20037;-48
2023/08/03 10:52:23;;;;;;;0.15;0.00;;;;;;;23.06;99.80;99769.47;5005593;28;20030;-45
2023/08/03 10:54:49;;;;;;;0.52;0.52;;;;;;;23.00;100.00;99778.72;5001292;28;20033;-48
2023/08/03 10:57:18;;;;;;;0.10;0.00;;;;;;;23.50;99.66;99769.09;5001493;28;20116;-50
2023/08/03 10:59:49;;;;;;;0.35;0.00;;;;;;;23.65;94.00;99776.19;5009678;28;20026;-48
2023/08/03 11:02:25;;;;;;;0.22;0.00;;;;;;;23.51;97.98;99786.91;5008359;28;20164;-48
2023/08/03 11:04:53;;;;;;;0.00;0.00;;;;;;;22.91;96.47;99797.47;5000459;28;20033;-48
2023/08/03 11:07:27;;;;;;;0.85;0.00;;;;;;;22.72;99.88;99800.13;5002458;28;20108;-49
2023/08/03 11:09:53;;;;;;;0.10;0.00;;;;;;;22.70;100.00;99810.41;4999747;28;20374;-47
2023/08/03 11:12:22;;;;;;;1.15;0.17;;;;;;;22.38;100.00;99806.44;5006127;28;20030;-51
2023/08/03 11:14:49;;;;;;;0.45;0.15;;;;;;;22.30;100.00;99809.75;5006961;28;20661;-49
2023/08/03 11:17:15;;;;;;;0.75;0.10;;;;;;;21.90;100.00;99806.31;5005053;28;20525;-46
2023/08/03 11:19:41;;;;;;;0.77;0.10;;;;;;;21.59;100.00;99816.53;5001854;28;20052;-47
2023/08/03 11:22:08;;;;;;;1.15;0.17;;;;;;;21.39;100.00;99817.44;5008202;28;20197;-46
2023/08/03 11:24:34;;;;;;;0.95;0.20;;;;;;;21.50;100.00;99828.97;5012879;28;20041;-49